Rijswijk, Netherlands
Current Conditions -  °F | °C
As of 1:25 AM on Friday 28 Nov 2014 (Local Time) from EHRD Reporting Station
Haze Haze  
Wind Chill: 39°   Ceiling: 1400
Heat Index: 45°   Visibility: 3mi
Dew Point: 45°   Wind: 12mph
Humidity: 100%   Direction: 100°E
Pressure: 29.71"   Gusts: NA
Location:  52.04°N, 4.33°E
Report Text: EHRD 280025Z AUTO 10010KT 080V140 5000 BR SCT005/// OVC014///07/07 Q1006 TEMPO BKN005
Loading
Personal Weather Stations






























Interactive Weather Map New forecast layout! Learn more

10-Day Weather Forecast

Advertisements
Track Severe Weather on mobile